createdAt,value
2022-10-17T00:00:41.654Z,59.40
2022-10-17T00:03:08.637Z,59.50
2022-10-17T00:05:40.305Z,59.50
2022-10-17T00:08:06.974Z,59.80
2022-10-17T00:10:33.657Z,59.50
2022-10-17T00:13:00.827Z,59.60
2022-10-17T00:15:27.522Z,59.60
2022-10-17T00:17:54.457Z,59.70
2022-10-17T00:20:21.335Z,59.80
2022-10-17T00:22:48.032Z,59.90
2022-10-17T00:25:14.859Z,59.90
2022-10-17T00:27:41.821Z,60.00
2022-10-17T00:30:12.629Z,60.10
2022-10-17T00:32:40.323Z,60.20
2022-10-17T00:35:07.739Z,60.00
2022-10-17T00:37:35.090Z,60.70
2022-10-17T00:40:02.113Z,60.10
2022-10-17T00:42:29.158Z,60.20
2022-10-17T00:45:06.206Z,60.20
2022-10-17T00:47:33.697Z,60.80
2022-10-17T00:52:33.132Z,60.40
2022-10-17T00:55:23.933Z,60.30
2022-10-17T00:57:51.439Z,61.50
2022-10-17T01:00:19.491Z,60.50
2022-10-17T01:02:46.434Z,60.60
2022-10-17T01:05:14.021Z,60.50
2022-10-17T01:07:44.262Z,60.50
2022-10-17T01:10:12.806Z,60.60
2022-10-17T01:13:08.301Z,60.60
2022-10-17T01:15:52.781Z,61.40
2022-10-17T01:18:35.353Z,61.70
2022-10-17T01:21:22.017Z,60.80
2022-10-17T01:24:13.105Z,61.40
2022-10-17T01:27:06.357Z,61.90
2022-10-17T01:30:07.393Z,62.20
2022-10-17T01:32:46.335Z,62.30
2022-10-17T01:35:27.654Z,61.30
2022-10-17T01:38:17.081Z,61.40
2022-10-17T01:40:56.392Z,62.10
2022-10-17T01:43:25.867Z,61.80
2022-10-17T01:45:59.040Z,61.20
2022-10-17T01:48:34.220Z,61.60
2022-10-17T01:51:11.682Z,61.80
2022-10-17T01:53:45.587Z,61.90
2022-10-17T01:56:14.446Z,61.90
2022-10-17T01:58:46.286Z,61.90
2022-10-17T02:01:13.399Z,62.20
2022-10-17T02:03:43.674Z,62.00
2022-10-17T02:06:10.394Z,62.20
2022-10-17T02:08:42.029Z,62.10
2022-10-17T02:11:20.552Z,62.60
2022-10-17T02:14:02.395Z,62.50
2022-10-17T02:16:42.060Z,62.40
2022-10-17T02:19:44.599Z,62.60
2022-10-17T02:22:37.534Z,62.90
2022-10-17T02:25:31.237Z,63.20
2022-10-17T02:28:09.097Z,62.90
2022-10-17T02:30:42.229Z,62.60
2022-10-17T02:33:21.578Z,62.50
2022-10-17T02:35:53.238Z,62.70
2022-10-17T02:38:22.797Z,62.40
2022-10-17T02:40:53.049Z,62.50
2022-10-17T02:43:20.437Z,62.50
2022-10-17T02:45:47.784Z,62.50
2022-10-17T02:48:25.820Z,62.80
2022-10-17T02:51:20.689Z,62.90
2022-10-17T02:53:50.893Z,63.30
2022-10-17T02:56:20.423Z,62.80
2022-10-17T02:58:55.357Z,62.80
2022-10-17T03:01:22.434Z,62.90
2022-10-17T03:03:49.163Z,62.70
2022-10-17T03:06:16.578Z,62.60
2022-10-17T03:08:43.243Z,62.80
2022-10-17T03:11:10.743Z,62.90
2022-10-17T03:13:39.744Z,63.00
2022-10-17T03:16:07.520Z,63.10
2022-10-17T03:18:34.849Z,63.20
2022-10-17T03:21:03.025Z,63.30
2022-10-17T03:23:29.981Z,63.10
2022-10-17T03:25:57.057Z,63.20
2022-10-17T03:28:24.390Z,63.20
2022-10-17T03:30:51.735Z,63.30
2022-10-17T03:33:18.344Z,63.40
2022-10-17T03:35:45.446Z,63.60
2022-10-17T03:38:12.366Z,63.60
2022-10-17T03:40:39.206Z,63.60
2022-10-17T03:43:06.300Z,63.50
2022-10-17T03:45:33.308Z,63.50
2022-10-17T03:48:00.097Z,63.50
2022-10-17T03:50:27.213Z,63.50
2022-10-17T03:52:53.863Z,63.50
2022-10-17T03:55:20.743Z,63.60
2022-10-17T03:57:47.428Z,63.70
2022-10-17T04:00:16.226Z,63.80
2022-10-17T04:02:49.902Z,63.70
2022-10-17T04:05:19.204Z,63.70
2022-10-17T04:07:46.660Z,63.80
2022-10-17T04:10:14.686Z,63.90
2022-10-17T04:12:41.969Z,64.00
2022-10-17T04:15:09.393Z,64.00
2022-10-17T04:17:38.206Z,63.90
2022-10-17T04:20:06.772Z,63.90
2022-10-17T04:22:34.649Z,64.00
2022-10-17T04:25:01.547Z,64.00
2022-10-17T04:27:40.380Z,64.00
2022-10-17T04:30:07.635Z,64.00
2022-10-17T04:32:41.670Z,64.00
2022-10-17T04:35:12.990Z,64.10
2022-10-17T04:37:44.404Z,63.80
2022-10-17T04:40:18.016Z,63.90
2022-10-17T04:42:45.353Z,63.90
2022-10-17T04:45:15.365Z,64.00
2022-10-17T04:47:42.989Z,63.90
2022-10-17T04:50:10.041Z,64.00
2022-10-17T04:52:39.595Z,64.10
2022-10-17T04:55:08.376Z,64.30
2022-10-17T04:57:36.055Z,64.30
2022-10-17T05:02:56.641Z,64.30
2022-10-17T05:05:23.643Z,64.20
2022-10-17T05:07:53.458Z,64.00
2022-10-17T05:10:24.434Z,63.80
2022-10-17T05:12:52.999Z,63.70
2022-10-17T05:15:22.922Z,63.70
2022-10-17T05:17:55.294Z,63.80
2022-10-17T05:20:23.749Z,64.10
2022-10-17T05:22:50.670Z,64.10
2022-10-17T05:25:17.842Z,64.10
2022-10-17T05:27:44.559Z,64.20
2022-10-17T05:30:11.509Z,64.20
2022-10-17T05:32:39.639Z,64.30
2022-10-17T05:35:07.633Z,64.30
2022-10-17T05:37:35.873Z,64.50
2022-10-17T05:40:04.269Z,64.50
2022-10-17T05:42:31.959Z,64.70
2022-10-17T05:44:58.858Z,64.80
2022-10-17T05:47:26.784Z,65.10
2022-10-17T05:49:53.649Z,65.30
2022-10-17T05:52:27.230Z,65.60
2022-10-17T05:55:14.525Z,65.50
2022-10-17T05:57:41.393Z,65.20
2022-10-17T06:00:14.285Z,65.20
2022-10-17T06:02:41.545Z,65.10
2022-10-17T06:05:09.690Z,65.20
2022-10-17T06:07:36.931Z,65.30
2022-10-17T06:10:05.702Z,65.40
2022-10-17T06:12:32.819Z,65.70
2022-10-17T06:14:59.565Z,66.00
2022-10-17T06:17:28.040Z,66.30
2022-10-17T06:19:54.972Z,66.60
2022-10-17T06:22:24.518Z,66.70
2022-10-17T06:24:52.961Z,66.80
2022-10-17T06:27:20.849Z,67.10
2022-10-17T06:29:48.279Z,67.30
2022-10-17T06:32:15.302Z,67.70
2022-10-17T06:34:45.960Z,67.70
2022-10-17T06:37:12.731Z,67.90
2022-10-17T06:39:41.613Z,68.10
2022-10-17T06:42:18.239Z,68.50
2022-10-17T06:45:09.001Z,68.70
2022-10-17T06:47:58.486Z,69.00
2022-10-17T06:50:35.774Z,69.20
2022-10-17T06:53:15.919Z,69.50
2022-10-17T06:55:54.025Z,69.80
2022-10-17T06:58:44.234Z,69.80
2022-10-17T07:01:23.538Z,69.60
2022-10-17T07:03:54.767Z,69.60
2022-10-17T07:06:24.496Z,69.50
2022-10-17T07:08:52.530Z,69.50
2022-10-17T07:11:21.277Z,69.50
2022-10-17T07:13:50.502Z,69.80
2022-10-17T07:16:17.542Z,69.90
2022-10-17T07:18:49.739Z,70.20
2022-10-17T07:21:17.825Z,70.60
2022-10-17T07:23:44.621Z,70.60
2022-10-17T07:26:14.443Z,70.60
2022-10-17T07:28:44.733Z,70.90
2022-10-17T07:31:23.637Z,71.00
2022-10-17T07:33:50.718Z,70.70
2022-10-17T07:36:18.751Z,70.90
2022-10-17T07:38:46.375Z,71.20
2022-10-17T07:41:16.592Z,71.10
2022-10-17T07:43:47.852Z,71.10
2022-10-17T07:46:17.958Z,71.00
2022-10-17T07:48:45.275Z,71.00
2022-10-17T07:51:12.294Z,71.20
2022-10-17T07:53:42.646Z,71.50
2022-10-17T07:56:11.384Z,71.70
2022-10-17T07:58:38.875Z,71.90
2022-10-17T08:01:10.758Z,71.90
2022-10-17T08:03:42.903Z,72.00
2022-10-17T08:06:09.559Z,72.10
2022-10-17T08:08:36.410Z,71.90
2022-10-17T08:11:05.907Z,71.80
2022-10-17T08:13:32.912Z,71.60
2022-10-17T08:16:01.797Z,71.50
2022-10-17T08:18:28.804Z,71.60
2022-10-17T08:21:00.224Z,71.50
2022-10-17T08:23:28.179Z,71.30
2022-10-17T08:25:55.080Z,71.10
2022-10-17T08:28:21.808Z,71.20
2022-10-17T08:30:48.504Z,72.00
2022-10-17T08:33:15.346Z,71.60
2022-10-17T08:35:42.051Z,73.00
2022-10-17T08:38:11.070Z,75.50
2022-10-17T08:40:42.683Z,78.20
2022-10-17T08:43:25.723Z,80.20
2022-10-17T08:45:56.354Z,75.90
2022-10-17T08:48:28.445Z,77.30
2022-10-17T08:51:04.396Z,74.30
2022-10-17T08:53:45.265Z,70.20
2022-10-17T08:56:43.979Z,66.90
2022-10-17T08:59:29.782Z,63.60
2022-10-17T09:02:03.919Z,61.00
2022-10-17T09:04:38.070Z,59.70
2022-10-17T09:07:20.325Z,58.30
2022-10-17T09:10:11.499Z,57.30
2022-10-17T09:12:56.354Z,53.70
2022-10-17T09:15:50.291Z,55.70
2022-10-17T09:18:31.674Z,53.40
2022-10-17T09:21:18.833Z,53.40
2022-10-17T09:23:53.322Z,53.90
2022-10-17T09:26:26.567Z,55.70
2022-10-17T09:28:56.513Z,55.90
2022-10-17T09:31:27.044Z,54.40
2022-10-17T09:33:57.069Z,53.30
2022-10-17T09:36:28.593Z,52.50
2022-10-17T09:39:11.157Z,51.00
2022-10-17T09:41:47.290Z,50.10
2022-10-17T09:44:24.593Z,50.20
2022-10-17T09:47:19.944Z,49.30
2022-10-17T09:49:48.697Z,48.30
2022-10-17T09:52:19.958Z,48.70
2022-10-17T09:54:50.568Z,48.40
2022-10-17T09:57:19.095Z,48.30
2022-10-17T10:00:01.601Z,47.80
2022-10-17T10:02:31.284Z,47.70
2022-10-17T10:05:06.265Z,48.90
2022-10-17T10:07:37.238Z,48.80
2022-10-17T10:10:07.947Z,46.90
2022-10-17T10:12:39.371Z,45.50
2022-10-17T10:15:34.046Z,43.20
2022-10-17T10:18:00.905Z,42.30
2022-10-17T10:20:37.033Z,42.90
2022-10-17T10:23:07.785Z,42.70
2022-10-17T10:25:36.427Z,43.20
2022-10-17T10:28:10.716Z,44.60
2022-10-17T10:30:39.800Z,45.30
2022-10-17T10:33:17.209Z,46.30
2022-10-17T10:35:53.861Z,45.80
2022-10-17T10:38:21.107Z,44.50
2022-10-17T10:40:57.262Z,44.90
2022-10-17T10:43:33.610Z,43.80
2022-10-17T10:46:01.164Z,43.10
2022-10-17T10:48:36.764Z,43.60
2022-10-17T10:51:14.573Z,42.60
2022-10-17T10:53:47.169Z,43.40
2022-10-17T10:56:40.514Z,42.70
2022-10-17T10:59:20.383Z,42.70
2022-10-17T11:01:57.911Z,43.90
2022-10-17T11:04:40.757Z,41.80
2022-10-17T11:07:14.641Z,42.20
2022-10-17T11:09:46.657Z,42.10
2022-10-17T11:12:33.792Z,41.80
2022-10-17T11:15:17.842Z,41.20
2022-10-17T11:17:56.767Z,41.50
2022-10-17T11:20:52.333Z,42.00
2022-10-17T11:23:53.397Z,41.00
2022-10-17T11:26:26.966Z,40.30
2022-10-17T11:28:56.002Z,41.00
2022-10-17T11:31:31.074Z,40.70
2022-10-17T11:34:01.627Z,39.60
2022-10-17T11:36:40.677Z,40.00
2022-10-17T11:39:37.075Z,39.30
2022-10-17T11:42:12.722Z,38.80
2022-10-17T11:44:41.198Z,37.90
2022-10-17T11:47:11.062Z,37.70
2022-10-17T11:49:47.247Z,36.80
2022-10-17T11:52:54.889Z,36.60
2022-10-17T11:55:23.041Z,37.10
2022-10-17T11:58:08.694Z,37.60
2022-10-17T12:00:48.855Z,37.70
2022-10-17T12:03:25.793Z,37.50
2022-10-17T12:06:14.020Z,37.20
2022-10-17T12:09:02.917Z,37.70
2022-10-17T12:11:54.034Z,38.00
2022-10-17T12:14:40.583Z,37.70
2022-10-17T12:17:30.464Z,38.00
2022-10-17T12:20:25.745Z,38.00
2022-10-17T12:23:11.861Z,37.70
2022-10-17T12:26:01.196Z,37.70
2022-10-17T12:28:43.225Z,37.60
2022-10-17T12:31:10.008Z,37.90
2022-10-17T12:33:50.510Z,38.20
2022-10-17T12:36:17.281Z,37.90
2022-10-17T12:38:49.223Z,38.20
2022-10-17T12:41:37.480Z,38.30
2022-10-17T12:44:13.317Z,38.30
2022-10-17T12:47:09.334Z,38.30
2022-10-17T12:49:47.233Z,38.50
2022-10-17T12:52:32.200Z,38.70
2022-10-17T12:55:14.189Z,38.80
2022-10-17T12:57:52.212Z,39.00
2022-10-17T13:00:49.688Z,39.10
2022-10-17T13:03:25.952Z,39.10
2022-10-17T13:06:01.801Z,39.00
2022-10-17T13:08:32.545Z,39.10
2022-10-17T13:11:00.411Z,39.50
2022-10-17T13:13:52.390Z,39.80
2022-10-17T13:16:40.557Z,39.80
2022-10-17T13:19:19.359Z,39.70
2022-10-17T13:21:59.836Z,39.80
2022-10-17T13:24:33.485Z,39.70
2022-10-17T13:27:00.799Z,39.60
2022-10-17T13:29:29.571Z,39.50
2022-10-17T13:32:01.916Z,39.60
2022-10-17T13:34:29.885Z,39.60
2022-10-17T13:37:04.038Z,39.80
2022-10-17T13:39:55.621Z,40.10
2022-10-17T13:42:30.840Z,40.30
2022-10-17T13:44:59.619Z,40.40
2022-10-17T13:47:33.694Z,40.50
2022-10-17T13:50:00.953Z,40.60
2022-10-17T13:52:30.121Z,40.60
2022-10-17T13:55:11.782Z,40.90
2022-10-17T13:57:40.067Z,41.40
2022-10-17T14:00:17.573Z,41.00
2022-10-17T14:02:45.117Z,41.30
2022-10-17T14:05:18.638Z,41.10
2022-10-17T14:10:43.484Z,41.50
2022-10-17T14:13:25.856Z,41.60
2022-10-17T14:15:55.737Z,42.00
2022-10-17T14:18:30.954Z,42.00
2022-10-17T14:23:50.546Z,42.30
2022-10-17T14:26:26.413Z,42.40
2022-10-17T14:29:07.583Z,42.70
2022-10-17T14:31:36.568Z,43.00
2022-10-17T14:34:04.872Z,42.80
2022-10-17T14:36:40.175Z,43.00
2022-10-17T14:39:17.853Z,43.30
2022-10-17T14:41:45.955Z,43.20
2022-10-17T14:44:23.958Z,43.30
2022-10-17T14:47:05.941Z,43.90
2022-10-17T14:49:39.192Z,44.00
2022-10-17T14:52:18.009Z,43.70
2022-10-17T14:54:47.618Z,44.00
2022-10-17T14:57:19.853Z,43.90
2022-10-17T14:59:55.387Z,44.00
2022-10-17T15:02:24.432Z,43.90
2022-10-17T15:04:51.487Z,44.00
2022-10-17T15:07:18.781Z,44.10
2022-10-17T15:09:48.445Z,44.10
2022-10-17T15:12:21.702Z,44.30
2022-10-17T15:14:50.643Z,44.50
2022-10-17T15:17:20.775Z,44.30
2022-10-17T15:19:48.577Z,44.40
2022-10-17T15:22:16.020Z,44.50
2022-10-17T15:24:42.975Z,44.60
2022-10-17T15:27:24.187Z,44.60
2022-10-17T15:29:51.736Z,45.30
2022-10-17T15:32:18.691Z,45.00
2022-10-17T15:34:45.589Z,45.10
2022-10-17T15:37:20.728Z,45.20
2022-10-17T15:39:54.212Z,45.70
2022-10-17T15:42:22.584Z,45.70
2022-10-17T15:44:50.198Z,45.60
2022-10-17T15:47:26.947Z,45.60
2022-10-17T15:49:55.159Z,45.80
2022-10-17T15:52:23.068Z,45.70
2022-10-17T15:54:50.438Z,45.90
2022-10-17T15:57:25.421Z,46.10
2022-10-17T15:59:53.281Z,46.40
2022-10-17T16:02:23.733Z,46.30
2022-10-17T16:04:51.860Z,46.40
2022-10-17T16:07:22.455Z,46.30
2022-10-17T16:09:49.168Z,46.50
2022-10-17T16:12:29.277Z,46.60
2022-10-17T16:14:56.530Z,47.60
2022-10-17T16:17:23.236Z,47.00
2022-10-17T16:19:50.036Z,47.00
2022-10-17T16:22:36.441Z,47.20
2022-10-17T16:25:19.355Z,47.70
2022-10-17T16:27:51.606Z,47.40
2022-10-17T16:30:19.592Z,47.50
2022-10-17T16:32:46.697Z,47.50
2022-10-17T16:35:19.906Z,47.50
2022-10-17T16:37:47.434Z,47.70
2022-10-17T16:40:14.405Z,47.70
2022-10-17T16:42:41.150Z,47.90
2022-10-17T16:45:08.577Z,48.00
2022-10-17T16:47:35.243Z,48.10
2022-10-17T16:50:02.057Z,48.20
2022-10-17T16:52:28.990Z,48.20
2022-10-17T16:54:55.947Z,48.30
2022-10-17T16:57:22.677Z,48.50
2022-10-17T16:59:49.288Z,48.50
2022-10-17T17:02:18.952Z,48.60
2022-10-17T17:04:48.089Z,48.60
2022-10-17T17:07:14.927Z,48.70
2022-10-17T17:09:41.839Z,48.70
2022-10-17T17:12:08.596Z,48.90
2022-10-17T17:14:35.533Z,48.90
2022-10-17T17:17:02.131Z,49.00
2022-10-17T17:19:28.921Z,49.10
2022-10-17T17:21:55.558Z,49.20
2022-10-17T17:24:22.329Z,49.30
2022-10-17T17:26:54.200Z,49.40
2022-10-17T17:29:22.075Z,49.80
2022-10-17T17:31:49.325Z,49.60
2022-10-17T17:34:18.139Z,49.70
2022-10-17T17:36:45.802Z,49.80
2022-10-17T17:39:14.754Z,49.90
2022-10-17T17:41:42.945Z,50.10
2022-10-17T17:44:15.601Z,50.10
2022-10-17T17:46:44.197Z,50.20
2022-10-17T17:49:11.611Z,50.20
2022-10-17T17:51:38.606Z,50.30
2022-10-17T17:54:05.983Z,50.40
2022-10-17T17:56:32.556Z,50.50
2022-10-17T17:59:02.180Z,50.50
2022-10-17T18:01:31.850Z,50.70
2022-10-17T18:03:59.356Z,50.80
2022-10-17T18:06:27.219Z,50.80
2022-10-17T18:08:56.254Z,50.90
2022-10-17T18:11:23.502Z,51.00
2022-10-17T18:13:58.538Z,51.00
2022-10-17T18:16:27.141Z,51.70
2022-10-17T18:18:53.912Z,51.10
2022-10-17T18:21:20.924Z,51.20
2022-10-17T18:23:48.649Z,51.30
2022-10-17T18:26:16.270Z,51.40
2022-10-17T18:28:43.818Z,51.50
2022-10-17T18:31:25.128Z,51.50
2022-10-17T18:33:56.790Z,51.90
2022-10-17T18:36:26.147Z,51.80
2022-10-17T18:38:54.100Z,51.70
2022-10-17T18:41:23.099Z,51.80
2022-10-17T18:43:51.719Z,51.90
2022-10-17T18:46:24.181Z,51.90
2022-10-17T18:48:51.542Z,52.10
2022-10-17T18:51:20.636Z,52.10
2022-10-17T18:53:50.174Z,52.20
2022-10-17T18:56:17.916Z,52.30
2022-10-17T18:58:45.526Z,52.30
2022-10-17T19:01:17.581Z,52.40
2022-10-17T19:03:46.621Z,52.60
2022-10-17T19:06:15.718Z,52.50
2022-10-17T19:08:43.353Z,52.70
2022-10-17T19:11:11.237Z,52.80
2022-10-17T19:13:38.265Z,52.80
2022-10-17T19:16:14.821Z,52.90
2022-10-17T19:18:41.920Z,53.40
2022-10-17T19:21:10.726Z,53.00
2022-10-17T19:23:38.136Z,53.10
2022-10-17T19:26:12.164Z,53.30
2022-10-17T19:28:42.017Z,53.80
2022-10-17T19:31:09.045Z,53.50
2022-10-17T19:33:36.467Z,53.40
2022-10-17T19:36:09.969Z,53.50
2022-10-17T19:38:37.125Z,53.90
2022-10-17T19:41:08.835Z,53.60
2022-10-17T19:43:36.969Z,54.00
2022-10-17T19:46:10.478Z,53.80
2022-10-17T19:48:38.208Z,54.10
2022-10-17T19:51:06.453Z,53.90
2022-10-17T19:53:33.790Z,54.10
2022-10-17T19:56:01.130Z,54.10
2022-10-17T19:58:28.184Z,54.20
2022-10-17T20:01:01.009Z,54.20
2022-10-17T20:03:28.913Z,54.50
2022-10-17T20:05:55.832Z,54.30
2022-10-17T20:08:22.971Z,54.30
2022-10-17T20:10:49.759Z,54.40
2022-10-17T20:13:16.376Z,54.50
2022-10-17T20:15:43.271Z,54.50
2022-10-17T20:18:10.155Z,54.60
2022-10-17T20:20:38.190Z,54.70
2022-10-17T20:23:05.031Z,54.70
2022-10-17T20:25:33.423Z,54.90
2022-10-17T20:28:00.461Z,54.90
2022-10-17T20:30:27.105Z,55.00
2022-10-17T20:32:55.565Z,55.10
2022-10-17T20:35:22.598Z,55.20
2022-10-17T20:37:49.688Z,55.30
2022-10-17T20:40:34.168Z,55.40
2022-10-17T20:43:03.480Z,55.50
2022-10-17T20:45:45.144Z,55.50
2022-10-17T20:48:17.441Z,55.70
2022-10-17T20:50:44.671Z,55.80
2022-10-17T20:53:35.389Z,56.00
2022-10-17T20:56:12.328Z,56.00
2022-10-17T20:58:39.574Z,56.70
2022-10-17T21:01:08.463Z,56.10
2022-10-17T21:03:42.437Z,56.30
2022-10-17T21:06:12.611Z,56.40
2022-10-17T21:08:39.615Z,56.40
2022-10-17T21:11:14.481Z,56.50
2022-10-17T21:13:41.878Z,57.00
2022-10-17T21:16:17.306Z,56.70
2022-10-17T21:18:44.701Z,57.40
2022-10-17T21:21:16.930Z,56.90
2022-10-17T21:23:45.158Z,57.30
2022-10-17T21:26:12.873Z,57.00
2022-10-17T21:28:40.999Z,57.00
2022-10-17T21:31:12.060Z,57.20
2022-10-17T21:33:39.313Z,57.50
2022-10-17T21:36:06.549Z,57.30
2022-10-17T21:38:36.335Z,57.30
2022-10-17T21:41:05.213Z,57.60
2022-10-17T21:43:32.536Z,57.50
2022-10-17T21:46:11.463Z,57.60
2022-10-17T21:48:38.524Z,58.20
2022-10-17T21:51:08.429Z,57.70
2022-10-17T21:53:36.100Z,58.10
2022-10-17T21:56:05.270Z,58.00
2022-10-17T21:58:32.832Z,58.10
2022-10-17T22:01:14.498Z,58.10
2022-10-17T22:03:45.879Z,58.40
2022-10-17T22:09:11.797Z,58.60
2022-10-17T22:11:38.685Z,58.30
2022-10-17T22:14:14.655Z,58.30
2022-10-17T22:16:41.658Z,58.50
2022-10-17T22:19:08.787Z,58.50
2022-10-17T22:21:36.609Z,58.60
2022-10-17T22:24:06.689Z,58.70
2022-10-17T22:26:35.453Z,58.80
2022-10-17T22:29:04.373Z,58.90
2022-10-17T22:31:31.726Z,58.80
2022-10-17T22:33:58.403Z,58.80
2022-10-17T22:36:25.201Z,58.80
2022-10-17T22:38:52.309Z,58.90
2022-10-17T22:41:20.317Z,59.10
2022-10-17T22:43:46.951Z,59.10
2022-10-17T22:46:16.676Z,59.10
2022-10-17T22:48:43.790Z,59.30
2022-10-17T22:51:11.093Z,59.70
2022-10-17T22:53:38.127Z,59.30
2022-10-17T22:56:09.757Z,59.40
2022-10-17T22:58:36.423Z,59.60
2022-10-17T23:01:04.665Z,59.50
2022-10-17T23:03:32.452Z,59.60
2022-10-17T23:05:59.516Z,59.60
2022-10-17T23:08:27.137Z,59.70
2022-10-17T23:10:53.834Z,59.70
2022-10-17T23:13:21.926Z,59.70
2022-10-17T23:15:53.079Z,59.80
2022-10-17T23:18:21.046Z,60.20
2022-10-17T23:20:48.420Z,59.90
2022-10-17T23:23:16.266Z,59.90
2022-10-17T23:25:43.406Z,60.00
2022-10-17T23:28:11.132Z,60.10
2022-10-17T23:30:39.044Z,60.30
2022-10-17T23:33:06.654Z,60.40
2022-10-17T23:35:33.801Z,60.30
2022-10-17T23:38:00.675Z,60.30
2022-10-17T23:40:28.055Z,60.40
2022-10-17T23:42:54.709Z,60.50
2022-10-17T23:45:21.897Z,60.50
2022-10-17T23:47:48.609Z,61.30
2022-10-17T23:50:16.264Z,60.70
2022-10-17T23:52:43.316Z,60.70
2022-10-17T23:55:10.416Z,60.70
2022-10-17T23:57:37.070Z,60.90
